createdAt,value
2024-03-21T00:00:40.105Z,25.26
2024-03-21T00:01:40.161Z,25.27
2024-03-21T00:02:40.207Z,25.28
2024-03-21T00:03:40.267Z,25.25
2024-03-21T00:04:40.305Z,25.29
2024-03-21T00:05:40.354Z,25.28
2024-03-21T00:06:40.420Z,25.29
2024-03-21T00:07:40.453Z,25.28
2024-03-21T00:08:40.516Z,25.29
2024-03-21T00:09:40.550Z,25.29
2024-03-21T00:10:40.600Z,25.28
2024-03-21T00:11:40.646Z,25.29
2024-03-21T00:12:40.700Z,25.28
2024-03-21T00:13:40.757Z,25.31
2024-03-21T00:14:40.795Z,25.31
2024-03-21T00:15:40.842Z,25.32
2024-03-21T00:16:40.894Z,25.28
2024-03-21T00:17:40.946Z,25.28
2024-03-21T00:18:41.013Z,25.31
2024-03-21T00:19:41.048Z,25.32
2024-03-21T00:20:41.098Z,25.30
2024-03-21T00:21:41.268Z,25.31
2024-03-21T00:22:41.200Z,25.29
2024-03-21T00:23:41.263Z,25.29
2024-03-21T00:24:41.307Z,25.30
2024-03-21T00:25:41.369Z,25.28
2024-03-21T00:26:41.410Z,25.29
2024-03-21T00:27:41.465Z,25.30
2024-03-21T00:28:41.513Z,25.29
2024-03-21T00:29:41.562Z,25.29
2024-03-21T00:30:41.614Z,25.30
2024-03-21T00:31:41.662Z,25.28
2024-03-21T00:32:41.717Z,25.28
2024-03-21T00:33:41.791Z,25.28
2024-03-21T00:34:41.833Z,25.31
2024-03-21T00:35:41.877Z,25.28
2024-03-21T00:36:41.927Z,25.28
2024-03-21T00:37:41.978Z,25.30
2024-03-21T00:38:42.039Z,25.27
2024-03-21T00:39:42.092Z,25.27
2024-03-21T00:40:42.153Z,25.27
2024-03-21T00:41:42.206Z,25.29
2024-03-21T00:42:42.281Z,25.30
2024-03-21T00:43:42.339Z,25.29
2024-03-21T00:44:42.387Z,25.27
2024-03-21T00:45:42.452Z,25.27
2024-03-21T00:46:42.503Z,25.22
2024-03-21T00:47:42.562Z,25.25
2024-03-21T00:48:42.637Z,25.23
2024-03-21T00:49:42.674Z,25.25
2024-03-21T00:50:42.724Z,25.24
2024-03-21T00:51:42.777Z,25.21
2024-03-21T00:52:42.836Z,25.24
2024-03-21T00:53:42.908Z,25.23
2024-03-21T00:54:42.942Z,25.24
2024-03-21T00:55:42.996Z,25.23
2024-03-21T00:56:43.051Z,25.17
2024-03-21T00:57:43.118Z,25.19
2024-03-21T00:58:43.169Z,25.18
2024-03-21T00:59:43.206Z,25.21
2024-03-21T01:00:43.256Z,25.16
2024-03-21T01:01:43.333Z,25.16
2024-03-21T01:02:43.367Z,25.14
2024-03-21T01:03:43.432Z,25.13
2024-03-21T01:04:43.499Z,25.13
2024-03-21T01:05:43.523Z,25.15
2024-03-21T01:06:43.568Z,25.13
2024-03-21T01:07:43.624Z,25.14
2024-03-21T01:08:43.681Z,25.15
2024-03-21T01:09:43.726Z,25.15
2024-03-21T01:10:43.882Z,25.13
2024-03-21T01:11:43.831Z,25.14
2024-03-21T01:12:43.887Z,25.12
2024-03-21T01:13:43.952Z,25.14
2024-03-21T01:14:44.002Z,25.12
2024-03-21T01:15:44.047Z,25.12
2024-03-21T01:16:44.116Z,25.13
2024-03-21T01:17:44.169Z,25.11
2024-03-21T01:18:44.229Z,25.11
2024-03-21T01:19:44.325Z,25.15
2024-03-21T01:20:44.332Z,25.14
2024-03-21T01:21:44.391Z,25.15
2024-03-21T01:22:44.480Z,25.10
2024-03-21T01:23:44.499Z,25.08
2024-03-21T01:24:44.546Z,25.05
2024-03-21T01:25:44.624Z,25.09
2024-03-21T01:26:44.654Z,25.08
2024-03-21T01:27:44.711Z,25.13
2024-03-21T01:28:44.786Z,25.10
2024-03-21T01:29:44.830Z,25.08
2024-03-21T01:30:44.880Z,25.10
2024-03-21T01:31:44.964Z,25.07
2024-03-21T01:32:44.995Z,25.11
2024-03-21T01:33:45.052Z,25.10
2024-03-21T01:34:45.109Z,25.13
2024-03-21T01:35:45.154Z,25.13
2024-03-21T01:36:45.213Z,25.12
2024-03-21T01:37:45.277Z,25.13
2024-03-21T01:38:45.326Z,25.11
2024-03-21T01:39:45.375Z,25.14
2024-03-21T01:40:45.436Z,25.14
2024-03-21T01:41:45.477Z,25.08
2024-03-21T01:42:45.532Z,25.06
2024-03-21T01:43:45.621Z,25.06
2024-03-21T01:44:45.637Z,25.09
2024-03-21T01:45:45.697Z,25.08
2024-03-21T01:46:45.795Z,25.10
2024-03-21T01:47:45.826Z,25.07
2024-03-21T01:48:45.877Z,25.01
2024-03-21T01:49:45.912Z,25.05
2024-03-21T01:50:45.966Z,25.07
2024-03-21T01:51:46.036Z,25.05
2024-03-21T01:52:46.076Z,25.02
2024-03-21T01:53:46.132Z,24.98
2024-03-21T01:54:46.188Z,25.00
2024-03-21T01:55:46.288Z,25.01
2024-03-21T01:56:46.296Z,24.99
2024-03-21T01:57:46.342Z,25.02
2024-03-21T01:58:46.437Z,24.99
2024-03-21T01:59:46.468Z,25.00
2024-03-21T02:00:46.522Z,24.98
2024-03-21T02:01:46.597Z,25.00
2024-03-21T02:02:46.640Z,25.01
2024-03-21T02:03:46.702Z,25.05
2024-03-21T02:04:46.767Z,25.05
2024-03-21T02:05:46.804Z,25.03
2024-03-21T02:06:46.907Z,25.02
2024-03-21T02:07:46.970Z,25.04
2024-03-21T02:08:46.996Z,25.03
2024-03-21T02:09:47.043Z,25.00
2024-03-21T02:10:47.118Z,25.04
2024-03-21T02:11:47.160Z,25.03
2024-03-21T02:12:47.213Z,25.05
2024-03-21T02:13:47.299Z,25.03
2024-03-21T02:14:47.344Z,25.04
2024-03-21T02:15:47.412Z,25.04
2024-03-21T02:16:47.513Z,25.04
2024-03-21T02:17:47.520Z,25.04
2024-03-21T02:18:47.593Z,25.04
2024-03-21T02:19:47.640Z,25.02
2024-03-21T02:20:47.701Z,25.05
2024-03-21T02:21:47.759Z,25.06
2024-03-21T02:22:47.823Z,25.04
2024-03-21T02:23:47.880Z,25.06
2024-03-21T02:24:47.964Z,25.02
2024-03-21T02:25:48.005Z,25.03
2024-03-21T02:26:48.069Z,25.05
2024-03-21T02:27:48.135Z,25.03
2024-03-21T02:28:48.194Z,25.02
2024-03-21T02:29:48.250Z,25.00
2024-03-21T02:30:48.318Z,24.97
2024-03-21T02:31:48.395Z,24.98
2024-03-21T02:32:48.432Z,24.96
2024-03-21T02:33:48.501Z,24.96
2024-03-21T02:34:48.555Z,24.98
2024-03-21T02:35:48.617Z,24.97
2024-03-21T02:36:48.684Z,24.94
2024-03-21T02:37:48.761Z,24.96
2024-03-21T02:38:48.789Z,24.96
2024-03-21T02:39:48.843Z,24.95
2024-03-21T02:40:48.914Z,24.94
2024-03-21T02:41:48.961Z,24.93
2024-03-21T02:42:49.015Z,24.95
2024-03-21T02:43:49.084Z,24.97
2024-03-21T02:44:49.149Z,24.96
2024-03-21T02:45:49.209Z,24.97
2024-03-21T02:46:49.260Z,24.98
2024-03-21T02:47:49.339Z,24.97
2024-03-21T02:48:49.408Z,24.98
2024-03-21T02:49:49.434Z,24.98
2024-03-21T02:50:49.500Z,24.99
2024-03-21T02:51:49.551Z,24.97
2024-03-21T02:52:49.642Z,24.96
2024-03-21T02:53:49.671Z,24.96
2024-03-21T02:54:49.704Z,24.98
2024-03-21T02:55:49.808Z,25.01
2024-03-21T02:56:49.820Z,25.01
2024-03-21T02:57:49.875Z,25.03
2024-03-21T02:58:49.935Z,25.01
2024-03-21T02:59:49.996Z,25.00
2024-03-21T03:00:50.075Z,25.03
2024-03-21T03:01:50.115Z,25.03
2024-03-21T03:02:50.162Z,25.02
2024-03-21T03:03:50.225Z,25.02
2024-03-21T03:04:50.272Z,25.02
2024-03-21T03:05:50.328Z,25.00
2024-03-21T03:06:50.414Z,25.04
2024-03-21T03:07:50.449Z,25.04
2024-03-21T03:08:50.511Z,25.00
2024-03-21T03:09:50.570Z,25.02
2024-03-21T03:10:50.677Z,25.04
2024-03-21T03:11:50.686Z,25.04
2024-03-21T03:12:50.752Z,25.04
2024-03-21T03:13:50.810Z,25.00
2024-03-21T03:14:50.870Z,25.01
2024-03-21T03:15:50.922Z,25.00
2024-03-21T03:16:50.998Z,25.03
2024-03-21T03:17:51.051Z,25.02
2024-03-21T03:18:51.113Z,25.03
2024-03-21T03:19:51.177Z,25.00
2024-03-21T03:20:51.214Z,24.99
2024-03-21T03:21:51.271Z,24.98
2024-03-21T03:22:51.343Z,25.01
2024-03-21T03:23:51.395Z,25.02
2024-03-21T03:24:51.446Z,25.01
2024-03-21T03:25:51.519Z,25.00
2024-03-21T03:26:51.557Z,25.04
2024-03-21T03:27:51.616Z,25.01
2024-03-21T03:28:51.710Z,25.02
2024-03-21T03:29:51.736Z,25.02
2024-03-21T03:30:51.776Z,25.03
2024-03-21T03:31:51.853Z,25.02
2024-03-21T03:32:51.909Z,25.04
2024-03-21T03:33:51.966Z,25.05
2024-03-21T03:34:52.046Z,25.08
2024-03-21T03:35:52.091Z,25.07
2024-03-21T03:36:52.149Z,25.07
2024-03-21T03:37:52.201Z,25.09
2024-03-21T03:38:52.259Z,25.07
2024-03-21T03:39:52.322Z,25.11
2024-03-21T03:40:52.372Z,25.09
2024-03-21T03:41:52.421Z,25.12
2024-03-21T03:42:52.481Z,25.08
2024-03-21T03:43:52.540Z,25.11
2024-03-21T03:44:52.616Z,25.11
2024-03-21T03:45:52.668Z,25.11
2024-03-21T03:46:52.742Z,25.12
2024-03-21T03:47:52.786Z,25.12
2024-03-21T03:48:52.842Z,25.11
2024-03-21T03:49:52.967Z,25.12
2024-03-21T03:50:52.959Z,25.12
2024-03-21T03:51:53.027Z,25.11
2024-03-21T03:52:53.115Z,25.12
2024-03-21T03:53:53.140Z,25.12
2024-03-21T03:54:53.201Z,25.12
2024-03-21T03:55:53.260Z,25.11
2024-03-21T03:56:53.327Z,25.13
2024-03-21T03:57:53.385Z,25.13
2024-03-21T03:58:53.466Z,25.17
2024-03-21T03:59:54.460Z,25.16
2024-03-21T04:00:53.565Z,25.18
2024-03-21T04:01:53.660Z,25.19
2024-03-21T04:02:53.676Z,25.19
2024-03-21T04:03:53.747Z,25.20
2024-03-21T04:04:53.850Z,25.17
2024-03-21T04:05:53.854Z,25.20
2024-03-21T04:06:53.922Z,25.19
2024-03-21T04:07:54.056Z,25.16
2024-03-21T04:08:54.067Z,25.20
2024-03-21T04:09:54.101Z,25.19
2024-03-21T04:10:54.197Z,25.18
2024-03-21T04:11:54.215Z,25.18
2024-03-21T04:12:54.273Z,25.16
2024-03-21T04:13:54.346Z,25.19
2024-03-21T04:14:54.410Z,25.18
2024-03-21T04:15:54.454Z,25.22
2024-03-21T04:16:54.525Z,25.23
2024-03-21T04:17:54.582Z,25.21
2024-03-21T04:18:54.644Z,25.24
2024-03-21T04:19:54.726Z,25.23
2024-03-21T04:20:54.770Z,25.23
2024-03-21T04:21:54.822Z,25.24
2024-03-21T04:22:54.903Z,25.23
2024-03-21T04:23:54.954Z,25.22
2024-03-21T04:24:55.020Z,25.24
2024-03-21T04:25:55.117Z,25.25
2024-03-21T04:26:55.132Z,25.27
2024-03-21T04:27:55.188Z,25.25
2024-03-21T04:28:55.270Z,25.25
2024-03-21T04:29:55.325Z,25.25
2024-03-21T04:30:55.377Z,25.25
2024-03-21T04:31:55.462Z,25.27
2024-03-21T04:32:55.495Z,25.25
2024-03-21T04:33:55.551Z,25.27
2024-03-21T04:34:55.686Z,25.23
2024-03-21T04:35:55.679Z,25.22
2024-03-21T04:36:55.748Z,25.19
2024-03-21T04:37:55.829Z,25.17
2024-03-21T04:38:55.849Z,25.15
2024-03-21T04:39:55.982Z,25.14
2024-03-21T04:40:56.021Z,25.16
2024-03-21T04:41:56.055Z,25.14
2024-03-21T04:42:56.112Z,25.18
2024-03-21T04:43:56.210Z,25.18
2024-03-21T04:44:56.225Z,25.20
2024-03-21T04:45:56.287Z,25.25
2024-03-21T04:46:56.373Z,25.24
2024-03-21T04:47:57.968Z,25.23
2024-03-21T04:48:56.467Z,25.22
2024-03-21T04:49:56.565Z,25.23
2024-03-21T04:50:56.585Z,25.24
2024-03-21T04:51:56.635Z,25.28
2024-03-21T04:52:56.716Z,25.28
2024-03-21T04:54:04.037Z,25.32
2024-03-21T04:55:04.018Z,25.32
2024-03-21T04:56:04.011Z,25.33
2024-03-21T04:57:04.010Z,25.33
2024-03-21T04:58:04.020Z,25.32
2024-03-21T04:59:04.026Z,25.34
2024-03-21T05:00:04.021Z,25.33
2024-03-21T05:01:04.013Z,25.35
2024-03-21T05:02:04.020Z,25.33
2024-03-21T05:03:04.013Z,25.35
2024-03-21T05:04:04.035Z,25.35
2024-03-21T05:05:04.033Z,25.38
2024-03-21T05:06:04.027Z,25.41
2024-03-21T05:07:04.036Z,25.42
2024-03-21T05:08:04.027Z,25.42
2024-03-21T05:09:04.038Z,25.44
2024-03-21T05:10:04.038Z,25.42
2024-03-21T05:11:04.039Z,25.44
2024-03-21T05:12:04.045Z,25.46
2024-03-21T05:13:04.057Z,25.43
2024-03-21T05:14:04.045Z,25.43
2024-03-21T05:15:04.043Z,25.42
2024-03-21T05:16:04.044Z,25.41
2024-03-21T05:17:04.040Z,25.40
2024-03-21T05:18:04.134Z,25.42
2024-03-21T05:19:04.085Z,25.41
2024-03-21T05:20:04.061Z,25.41
2024-03-21T05:21:04.067Z,25.41
2024-03-21T05:22:04.073Z,25.40
2024-03-21T05:23:04.062Z,25.39
2024-03-21T05:24:04.075Z,25.37
2024-03-21T05:25:04.072Z,25.37
2024-03-21T05:26:04.100Z,25.36
2024-03-21T05:27:04.145Z,25.37
2024-03-21T05:28:04.179Z,25.34
2024-03-21T05:29:04.231Z,25.35
2024-03-21T05:30:04.254Z,25.36
2024-03-21T05:31:04.287Z,25.38
2024-03-21T05:32:04.320Z,25.38
2024-03-21T05:33:04.367Z,25.39
2024-03-21T05:34:04.416Z,25.40
2024-03-21T05:35:04.454Z,25.43
2024-03-21T05:36:04.491Z,25.44
2024-03-21T05:37:04.532Z,25.44
2024-03-21T05:38:04.572Z,25.44
2024-03-21T05:39:04.615Z,25.47
2024-03-21T05:40:04.662Z,25.46
2024-03-21T05:41:04.697Z,25.48
2024-03-21T05:42:04.730Z,25.45
2024-03-21T05:43:04.776Z,25.46
2024-03-21T05:44:04.821Z,25.46
2024-03-21T05:45:04.865Z,25.48
2024-03-21T05:46:04.909Z,25.42
2024-03-21T05:47:04.944Z,25.42
2024-03-21T05:48:04.988Z,25.44
2024-03-21T05:49:05.022Z,25.43
2024-03-21T05:50:05.082Z,25.43
2024-03-21T05:51:05.110Z,25.41
2024-03-21T05:52:05.145Z,25.43
2024-03-21T05:53:05.189Z,25.39
2024-03-21T05:54:05.227Z,25.41
2024-03-21T05:55:05.275Z,25.38
2024-03-21T05:56:05.316Z,25.40
2024-03-21T05:57:05.346Z,25.35
2024-03-21T05:58:05.388Z,25.38
2024-03-21T05:59:05.433Z,25.38
2024-03-21T06:00:05.464Z,25.37
2024-03-21T06:01:05.508Z,25.37
2024-03-21T06:02:05.547Z,25.34
2024-03-21T06:03:05.583Z,25.34
2024-03-21T06:04:05.620Z,25.35
2024-03-21T06:05:05.671Z,25.34
2024-03-21T06:06:05.715Z,25.33
2024-03-21T06:07:05.744Z,25.35
2024-03-21T06:08:05.782Z,25.38
2024-03-21T06:09:05.821Z,25.37
2024-03-21T06:10:05.866Z,25.38
2024-03-21T06:11:05.903Z,25.36
2024-03-21T06:12:05.945Z,25.41
2024-03-21T06:13:05.979Z,25.43
2024-03-21T06:14:06.011Z,25.45
2024-03-21T06:15:06.051Z,25.49
2024-03-21T06:16:06.085Z,25.47
2024-03-21T06:17:06.121Z,25.46
2024-03-21T06:18:06.163Z,25.45
2024-03-21T06:19:06.199Z,25.46
2024-03-21T06:20:06.653Z,25.47
2024-03-21T06:21:06.266Z,25.49
2024-03-21T06:22:06.296Z,25.54
2024-03-21T06:23:06.344Z,25.55
2024-03-21T06:24:06.392Z,25.58
2024-03-21T06:25:06.430Z,25.57
2024-03-21T06:26:06.456Z,25.57
2024-03-21T06:27:06.492Z,25.60
2024-03-21T06:28:06.523Z,25.64
2024-03-21T06:29:06.573Z,25.83
2024-03-21T06:30:06.652Z,26.01
2024-03-21T06:31:06.647Z,26.10
2024-03-21T06:32:06.702Z,26.13
2024-03-21T06:33:06.736Z,26.21
2024-03-21T06:34:06.764Z,26.43
2024-03-21T06:35:07.165Z,26.45
2024-03-21T06:36:06.849Z,26.63
2024-03-21T06:37:06.864Z,26.94
2024-03-21T06:38:06.890Z,27.13
2024-03-21T06:39:06.923Z,27.29
2024-03-21T06:40:07.159Z,27.13
2024-03-21T06:41:07.172Z,27.46
2024-03-21T06:42:07.000Z,27.40
2024-03-21T06:43:07.016Z,27.41
2024-03-21T06:44:07.048Z,27.54
2024-03-21T06:45:07.166Z,27.85
2024-03-21T06:46:07.089Z,27.92
2024-03-21T06:47:07.117Z,28.11
2024-03-21T06:48:07.132Z,28.17
2024-03-21T06:49:07.174Z,28.16
2024-03-21T06:50:07.201Z,28.21
2024-03-21T06:51:07.207Z,28.17
2024-03-21T06:52:07.251Z,28.25
2024-03-21T06:53:07.271Z,28.39
2024-03-21T06:54:07.285Z,28.17
2024-03-21T06:55:07.318Z,28.28
2024-03-21T06:56:07.366Z,28.32
2024-03-21T06:57:07.379Z,28.56
2024-03-21T06:58:07.389Z,28.50
2024-03-21T06:59:07.420Z,28.49
2024-03-21T07:00:07.436Z,28.41
2024-03-21T07:01:07.462Z,28.32
2024-03-21T07:02:07.509Z,28.24
2024-03-21T07:03:07.506Z,28.84
2024-03-21T07:04:07.538Z,28.53
2024-03-21T07:05:07.550Z,28.55
2024-03-21T07:06:07.573Z,28.46
2024-03-21T07:07:07.599Z,28.53
2024-03-21T07:08:07.619Z,28.43
2024-03-21T07:09:07.639Z,28.41
2024-03-21T07:10:07.668Z,28.43
2024-03-21T07:11:07.711Z,28.46
2024-03-21T07:12:07.700Z,28.56
2024-03-21T07:13:07.738Z,28.64
2024-03-21T07:14:07.757Z,28.61
2024-03-21T07:15:08.173Z,28.62
2024-03-21T07:16:07.816Z,28.53
2024-03-21T07:17:07.862Z,28.46
2024-03-21T07:18:07.869Z,28.55
2024-03-21T07:19:07.897Z,28.86
2024-03-21T07:20:07.953Z,29.05
2024-03-21T07:21:07.934Z,29.26
2024-03-21T07:22:07.957Z,29.40
2024-03-21T07:23:08.181Z,29.47
2024-03-21T07:24:08.008Z,29.48
2024-03-21T07:25:08.041Z,29.48
2024-03-21T07:26:08.111Z,29.40
2024-03-21T07:27:08.096Z,29.36
2024-03-21T07:28:08.181Z,29.32
2024-03-21T07:29:08.164Z,29.29
2024-03-21T07:30:08.692Z,29.26
2024-03-21T07:31:08.244Z,29.40
2024-03-21T07:32:08.285Z,30.05
2024-03-21T07:33:08.355Z,29.77
2024-03-21T07:34:08.413Z,29.99
2024-03-21T07:35:08.690Z,30.60
2024-03-21T07:36:08.472Z,31.00
2024-03-21T07:37:08.482Z,30.90
2024-03-21T07:38:08.506Z,30.88
2024-03-21T07:39:08.515Z,30.90
2024-03-21T07:40:08.685Z,30.90
2024-03-21T07:41:08.567Z,30.81
2024-03-21T07:42:08.540Z,30.86
2024-03-21T07:43:08.554Z,30.71
2024-03-21T07:44:08.615Z,30.64
2024-03-21T07:45:08.681Z,30.50
2024-03-21T07:46:08.750Z,30.40
2024-03-21T07:47:08.828Z,30.27
2024-03-21T07:48:08.900Z,30.19
2024-03-21T07:49:08.961Z,30.06
2024-03-21T07:50:09.615Z,30.01
2024-03-21T07:51:09.088Z,29.98
2024-03-21T07:52:09.149Z,30.66
2024-03-21T07:53:09.215Z,30.07
2024-03-21T07:54:09.280Z,30.18
2024-03-21T07:55:09.702Z,30.51
2024-03-21T07:56:09.412Z,30.17
2024-03-21T07:57:09.483Z,29.94
2024-03-21T07:58:09.511Z,29.91
2024-03-21T07:59:09.559Z,29.93
2024-03-21T08:00:09.615Z,29.94
2024-03-21T08:01:11.176Z,29.96
2024-03-21T08:02:09.715Z,29.96
2024-03-21T08:03:09.766Z,29.93
2024-03-21T08:04:09.818Z,29.85
2024-03-21T08:05:09.879Z,29.91
2024-03-21T08:06:09.993Z,29.87
2024-03-21T08:07:10.040Z,29.84
2024-03-21T08:08:10.054Z,29.78
2024-03-21T08:09:10.146Z,29.90
2024-03-21T08:10:10.296Z,29.98
2024-03-21T08:11:10.353Z,29.79
2024-03-21T08:12:10.294Z,29.81
2024-03-21T08:13:10.347Z,30.00
2024-03-21T08:14:10.415Z,30.00
2024-03-21T08:15:10.491Z,30.06
2024-03-21T08:16:10.634Z,30.22
2024-03-21T08:17:10.710Z,30.11
2024-03-21T08:18:10.697Z,30.20
2024-03-21T08:19:10.751Z,30.32
2024-03-21T08:20:10.811Z,30.42
2024-03-21T08:21:12.878Z,30.55
2024-03-21T08:22:10.884Z,30.55
2024-03-21T08:23:10.903Z,30.46
2024-03-21T08:24:10.897Z,30.60
2024-03-21T08:25:11.709Z,30.72
2024-03-21T08:26:10.911Z,30.95
2024-03-21T08:27:10.920Z,31.27
2024-03-21T08:28:10.903Z,31.16
2024-03-21T08:29:10.909Z,31.59
2024-03-21T08:30:11.025Z,32.05
2024-03-21T08:31:10.911Z,31.87
2024-03-21T08:32:10.949Z,31.58
2024-03-21T08:33:10.905Z,31.55
2024-03-21T08:34:10.896Z,31.41
2024-03-21T08:35:11.223Z,31.51
2024-03-21T08:36:10.906Z,31.44
2024-03-21T08:37:10.914Z,31.63
2024-03-21T08:38:10.915Z,31.61
2024-03-21T08:39:10.914Z,31.50
2024-03-21T08:40:11.209Z,31.47
2024-03-21T08:41:10.922Z,31.53
2024-03-21T08:42:10.930Z,31.49
2024-03-21T08:43:10.913Z,31.54
2024-03-21T08:44:11.222Z,31.50
2024-03-21T08:45:10.912Z,31.49
2024-03-21T08:46:10.914Z,31.57
2024-03-21T08:47:10.915Z,31.56
2024-03-21T08:48:10.915Z,31.60
2024-03-21T08:49:11.216Z,31.63
2024-03-21T08:50:10.932Z,31.76
2024-03-21T08:51:10.931Z,31.74
2024-03-21T08:52:10.922Z,31.78
2024-03-21T08:53:10.940Z,31.77
2024-03-21T08:54:10.928Z,31.77
2024-03-21T08:55:10.925Z,31.76
2024-03-21T08:56:10.919Z,32.01
2024-03-21T08:57:10.931Z,31.94
2024-03-21T08:58:10.979Z,32.00
2024-03-21T08:59:11.039Z,31.99
2024-03-21T09:00:11.103Z,32.15
2024-03-21T09:01:11.171Z,32.14
2024-03-21T09:02:11.280Z,32.31
2024-03-21T09:03:11.312Z,32.22
2024-03-21T09:04:11.365Z,32.28
2024-03-21T09:05:11.505Z,32.33
2024-03-21T09:06:11.567Z,32.58
2024-03-21T09:07:11.573Z,32.44
2024-03-21T09:08:11.634Z,32.61
2024-03-21T09:09:11.704Z,32.58
2024-03-21T09:10:11.767Z,32.51
2024-03-21T09:11:11.869Z,32.68
2024-03-21T09:12:11.895Z,32.60
2024-03-21T09:13:11.962Z,32.63
2024-03-21T09:14:12.041Z,32.61
2024-03-21T09:15:12.172Z,32.75
2024-03-21T09:16:12.206Z,32.86
2024-03-21T09:17:12.228Z,32.99
2024-03-21T09:18:12.284Z,33.02
2024-03-21T09:19:12.349Z,33.01
2024-03-21T09:20:12.774Z,32.79
2024-03-21T09:21:12.478Z,33.44
2024-03-21T09:22:12.548Z,33.17
2024-03-21T09:23:12.718Z,32.65
2024-03-21T09:24:12.707Z,32.49
2024-03-21T09:25:13.282Z,32.40
2024-03-21T09:26:12.786Z,32.58
2024-03-21T09:27:15.432Z,32.62
2024-03-21T09:28:13.780Z,32.19
2024-03-21T09:29:12.782Z,32.16
2024-03-21T09:30:12.794Z,32.21
2024-03-21T09:31:12.800Z,32.94
2024-03-21T09:32:12.792Z,32.50
2024-03-21T09:33:12.791Z,32.57
2024-03-21T09:34:12.835Z,32.76
2024-03-21T09:35:12.802Z,33.21
2024-03-21T09:36:12.798Z,32.75
2024-03-21T09:37:12.914Z,32.67
2024-03-21T09:38:12.798Z,32.91
2024-03-21T09:39:12.821Z,33.08
2024-03-21T09:40:12.806Z,33.13
2024-03-21T09:41:12.806Z,33.15
2024-03-21T09:42:12.802Z,33.13
2024-03-21T09:43:12.817Z,33.10
2024-03-21T09:44:12.810Z,32.93
2024-03-21T09:45:12.887Z,33.07
2024-03-21T09:46:12.954Z,33.04
2024-03-21T09:47:13.044Z,33.40
2024-03-21T09:48:13.076Z,33.65
2024-03-21T09:49:13.229Z,33.46
2024-03-21T09:50:13.218Z,33.38
2024-03-21T09:51:13.322Z,33.77
2024-03-21T09:52:13.326Z,33.60
2024-03-21T09:53:13.383Z,33.56
2024-03-21T09:54:13.439Z,33.64
2024-03-21T09:55:13.486Z,33.57
2024-03-21T09:56:13.566Z,33.57
2024-03-21T09:57:13.580Z,33.55
2024-03-21T09:58:13.651Z,33.50
2024-03-21T09:59:13.771Z,33.57
2024-03-21T10:00:13.756Z,33.79
2024-03-21T10:01:13.769Z,33.91
2024-03-21T10:02:13.808Z,33.82
2024-03-21T10:03:13.856Z,33.79
2024-03-21T10:04:13.940Z,33.81
2024-03-21T10:05:13.951Z,33.87
2024-03-21T10:06:14.068Z,33.68
2024-03-21T10:07:14.032Z,33.78
2024-03-21T10:08:14.066Z,33.68
2024-03-21T10:09:14.102Z,33.71
2024-03-21T10:10:14.163Z,33.75
2024-03-21T10:11:14.286Z,33.88
2024-03-21T10:12:14.204Z,33.70
2024-03-21T10:13:14.279Z,33.73
2024-03-21T10:14:14.386Z,33.76
2024-03-21T10:15:14.857Z,33.83
2024-03-21T10:16:14.352Z,33.85
2024-03-21T10:17:15.664Z,34.03
2024-03-21T10:18:14.414Z,33.99
2024-03-21T10:19:14.447Z,34.02
2024-03-21T10:20:14.480Z,34.04
2024-03-21T10:21:14.499Z,34.12
2024-03-21T10:22:14.530Z,34.14
2024-03-21T10:23:14.550Z,34.16
2024-03-21T10:24:14.571Z,34.04
2024-03-21T10:25:14.765Z,34.04
2024-03-21T10:26:14.630Z,33.94
2024-03-21T10:27:14.654Z,34.12
2024-03-21T10:28:14.681Z,34.04
2024-03-21T10:29:14.728Z,34.20
2024-03-21T10:30:14.859Z,34.18
2024-03-21T10:31:14.745Z,34.19
2024-03-21T10:32:14.788Z,34.33
2024-03-21T10:33:14.801Z,34.40
2024-03-21T10:34:14.824Z,34.34
2024-03-21T10:35:19.193Z,34.35
2024-03-21T10:36:15.869Z,34.33
2024-03-21T10:37:14.866Z,34.40
2024-03-21T10:38:14.866Z,34.63
2024-03-21T10:39:14.872Z,34.49
2024-03-21T10:40:14.869Z,34.74
2024-03-21T10:41:14.869Z,34.79
2024-03-21T10:42:14.879Z,34.79
2024-03-21T10:43:14.877Z,34.83
2024-03-21T10:44:14.875Z,34.83
2024-03-21T10:45:14.874Z,34.64
2024-03-21T10:46:14.920Z,34.55
2024-03-21T10:47:14.876Z,34.66
2024-03-21T10:48:14.876Z,34.68
2024-03-21T10:49:14.880Z,34.64
2024-03-21T10:50:15.285Z,34.56
2024-03-21T10:51:14.893Z,34.79
2024-03-21T10:52:14.897Z,34.77
2024-03-21T10:53:14.885Z,34.73
2024-03-21T10:54:14.897Z,34.83
2024-03-21T10:55:14.881Z,34.88
2024-03-21T10:56:14.880Z,34.96
2024-03-21T10:57:14.881Z,35.08
2024-03-21T10:58:14.889Z,35.04
2024-03-21T10:59:14.887Z,35.07
2024-03-21T11:00:14.887Z,35.03
2024-03-21T11:01:14.898Z,35.17
2024-03-21T11:02:14.926Z,35.29
2024-03-21T11:03:14.919Z,35.47
2024-03-21T11:04:14.891Z,35.61
2024-03-21T11:05:14.909Z,35.44
2024-03-21T11:06:16.330Z,35.78
2024-03-21T11:07:14.918Z,35.65
2024-03-21T11:08:14.942Z,35.67
2024-03-21T11:09:14.937Z,35.99
2024-03-21T11:10:15.007Z,35.97
2024-03-21T11:11:14.979Z,36.10
2024-03-21T11:12:15.091Z,36.11
2024-03-21T11:13:15.001Z,36.11
2024-03-21T11:14:15.056Z,36.14
2024-03-21T11:15:15.036Z,36.01
2024-03-21T11:16:15.043Z,36.11
2024-03-21T11:17:15.102Z,36.10
2024-03-21T11:18:15.115Z,36.34
2024-03-21T11:19:15.134Z,36.40
2024-03-21T11:20:15.482Z,36.35
2024-03-21T11:21:15.189Z,35.71
2024-03-21T11:22:15.324Z,36.07
2024-03-21T11:23:15.191Z,35.93
2024-03-21T11:24:15.231Z,34.94
2024-03-21T11:25:15.320Z,35.19
2024-03-21T11:26:15.267Z,35.03
2024-03-21T11:27:15.322Z,35.31
2024-03-21T11:28:15.383Z,35.36
2024-03-21T11:29:19.326Z,35.20
2024-03-21T11:30:16.377Z,35.38
2024-03-21T11:31:15.447Z,35.62
2024-03-21T11:32:15.459Z,35.59
2024-03-21T11:33:16.250Z,35.53
2024-03-21T11:34:15.467Z,35.69
2024-03-21T11:35:15.472Z,35.49
2024-03-21T11:36:15.479Z,35.50
2024-03-21T11:37:15.819Z,35.47
2024-03-21T11:38:15.467Z,35.65
2024-03-21T11:39:15.480Z,35.91
2024-03-21T11:40:15.483Z,35.89
2024-03-21T11:41:15.475Z,35.82
2024-03-21T11:42:15.507Z,35.54
2024-03-21T11:43:15.473Z,35.88
2024-03-21T11:44:15.471Z,36.01
2024-03-21T11:45:15.493Z,35.73
2024-03-21T11:46:15.515Z,35.72
2024-03-21T11:47:15.511Z,35.69
2024-03-21T11:48:16.664Z,35.65
2024-03-21T11:49:15.495Z,35.61
2024-03-21T11:50:15.493Z,35.53
2024-03-21T11:51:15.485Z,35.45
2024-03-21T11:52:15.504Z,35.31
2024-03-21T11:53:15.528Z,35.35
2024-03-21T11:54:15.547Z,35.39
2024-03-21T11:55:15.580Z,35.55
2024-03-21T11:56:15.595Z,35.66
2024-03-21T11:57:15.624Z,35.82
2024-03-21T11:58:15.646Z,35.65
2024-03-21T11:59:15.656Z,35.70
2024-03-21T12:00:15.696Z,35.78
2024-03-21T12:01:15.720Z,35.84
2024-03-21T12:02:15.732Z,35.82
2024-03-21T12:03:15.782Z,35.71
2024-03-21T12:04:15.767Z,35.51
2024-03-21T12:05:15.804Z,35.25
2024-03-21T12:06:15.893Z,35.20
2024-03-21T12:07:15.799Z,35.29
2024-03-21T12:08:15.889Z,35.33
2024-03-21T12:09:15.854Z,35.53
2024-03-21T12:10:16.336Z,35.32
2024-03-21T12:11:15.941Z,35.87
2024-03-21T12:12:15.918Z,35.70
2024-03-21T12:13:16.322Z,35.22
2024-03-21T12:14:15.990Z,35.54
2024-03-21T12:15:15.915Z,35.45
2024-03-21T12:16:15.932Z,35.22
2024-03-21T12:17:15.964Z,35.46
2024-03-21T12:18:16.350Z,35.50
2024-03-21T12:19:15.998Z,35.24
2024-03-21T12:20:16.013Z,35.27
2024-03-21T12:21:16.036Z,35.41
2024-03-21T12:22:16.163Z,35.42
2024-03-21T12:23:16.344Z,35.29
2024-03-21T12:24:16.113Z,35.25
2024-03-21T12:25:16.254Z,35.20
2024-03-21T12:26:16.187Z,34.82
2024-03-21T12:27:16.170Z,34.64
2024-03-21T12:28:16.190Z,34.50
2024-03-21T12:29:16.254Z,34.50
2024-03-21T12:30:16.240Z,34.42
2024-03-21T12:31:16.258Z,34.33
2024-03-21T12:32:16.286Z,34.33
2024-03-21T12:33:16.302Z,34.29
2024-03-21T12:34:16.313Z,34.29
2024-03-21T12:35:16.822Z,34.34
2024-03-21T12:36:16.352Z,34.28
2024-03-21T12:37:16.362Z,34.25
2024-03-21T12:38:16.378Z,34.29
2024-03-21T12:39:16.393Z,34.21
2024-03-21T12:40:16.409Z,34.17
2024-03-21T12:41:16.418Z,34.34
2024-03-21T12:42:16.437Z,34.17
2024-03-21T12:43:16.480Z,34.15
2024-03-21T12:44:16.472Z,34.13
2024-03-21T12:45:16.492Z,34.17
2024-03-21T12:46:16.531Z,34.12
2024-03-21T12:47:16.609Z,34.11
2024-03-21T12:48:16.600Z,34.08
2024-03-21T12:49:16.587Z,34.11
2024-03-21T12:50:16.601Z,34.08
2024-03-21T12:51:16.618Z,34.11
2024-03-21T12:52:16.656Z,34.13
2024-03-21T12:53:16.743Z,34.13